createdAt,value
2019-06-01T00:00:11.726Z,3.70
2019-06-01T00:02:33.512Z,4.53
2019-06-01T00:04:59.892Z,3.43
2019-06-01T00:07:26.319Z,3.07
2019-06-01T00:09:52.698Z,3.33
2019-06-01T00:12:19.094Z,3.00
2019-06-01T00:14:46.015Z,2.90
2019-06-01T00:17:12.612Z,3.60
2019-06-01T00:19:39.934Z,3.37
2019-06-01T00:22:06.499Z,4.00
2019-06-01T00:24:32.878Z,3.97
2019-06-01T00:26:59.275Z,4.20
2019-06-01T00:29:25.658Z,3.58
2019-06-01T00:31:52.258Z,3.43
2019-06-01T00:34:18.856Z,3.77
2019-06-01T00:36:45.656Z,3.30
2019-06-01T00:39:12.241Z,3.87
2019-06-01T00:41:38.623Z,3.73
2019-06-01T00:44:05.023Z,3.93
2019-06-01T00:46:31.407Z,4.20
2019-06-01T00:48:57.811Z,4.10
2019-06-01T00:51:24.191Z,4.13
2019-06-01T00:53:51.844Z,3.90
2019-06-01T00:56:18.586Z,3.57
2019-06-01T00:58:45.675Z,3.93
2019-06-01T01:01:12.362Z,3.87
2019-06-01T01:03:38.812Z,3.23
2019-06-01T01:06:05.326Z,3.20
2019-06-01T01:08:31.716Z,4.03
2019-06-01T01:10:58.091Z,3.90
2019-06-01T01:13:26.091Z,4.17
2019-06-01T01:15:53.466Z,4.13
2019-06-01T01:18:20.078Z,4.10
2019-06-01T01:20:46.724Z,3.27
2019-06-01T01:23:14.262Z,3.33
2019-06-01T01:25:40.657Z,3.63
2019-06-01T01:28:07.051Z,3.83
2019-06-01T01:30:33.533Z,3.73
2019-06-01T01:32:59.960Z,4.07
2019-06-01T01:35:26.371Z,4.00
2019-06-01T01:37:56.327Z,3.67
2019-06-01T01:40:22.709Z,4.50
2019-06-01T01:42:50.488Z,3.90
2019-06-01T01:45:17.199Z,4.20
2019-06-01T01:47:43.703Z,3.90
2019-06-01T01:50:10.274Z,4.50
2019-06-01T01:52:36.647Z,4.50
2019-06-01T01:55:06.665Z,3.37
2019-06-01T02:00:42.186Z,3.80
2019-06-01T02:03:09.247Z,3.93
2019-06-01T02:05:36.356Z,3.33
2019-06-01T02:08:03.134Z,3.70
2019-06-01T02:10:29.532Z,3.87
2019-06-01T02:12:55.919Z,3.80
2019-06-01T02:15:22.419Z,4.17
2019-06-01T02:17:48.826Z,3.70
2019-06-01T02:20:15.198Z,3.87
2019-06-01T02:22:41.580Z,3.90
2019-06-01T02:25:08.079Z,3.73
2019-06-01T02:27:34.462Z,4.40
2019-06-01T02:30:03.288Z,4.10
2019-06-01T02:32:29.739Z,4.60
2019-06-01T02:34:56.456Z,4.23
2019-06-01T02:37:24.455Z,4.07
2019-06-01T02:39:50.868Z,4.40
2019-06-01T02:42:17.245Z,4.40
2019-06-01T02:44:43.651Z,4.20
2019-06-01T02:47:10.040Z,4.80
2019-06-01T02:49:36.440Z,4.60
2019-06-01T02:52:24.608Z,4.10
2019-06-01T02:54:51.012Z,4.13
2019-06-01T02:57:17.416Z,4.23
2019-06-01T02:59:43.835Z,4.27
2019-06-01T03:02:13.693Z,4.60
2019-06-01T03:04:38.720Z,4.37
2019-06-01T03:07:08.693Z,4.10
2019-06-01T03:09:37.422Z,3.70
2019-06-01T03:12:04.248Z,3.47
2019-06-01T03:14:32.444Z,4.63
2019-06-01T03:16:59.783Z,4.23
2019-06-01T03:19:27.944Z,3.80
2019-06-01T03:21:56.217Z,4.57
2019-06-01T03:24:23.152Z,4.20
2019-06-01T03:26:51.439Z,4.20
2019-06-01T03:29:18.539Z,4.53
2019-06-01T03:31:44.922Z,5.42
2019-06-01T03:34:11.605Z,5.00
2019-06-01T03:36:38.934Z,4.70
2019-06-01T03:39:06.095Z,4.20
2019-06-01T03:41:32.831Z,4.40
2019-06-01T03:44:00.368Z,3.77
2019-06-01T03:46:26.926Z,4.17
2019-06-01T03:48:53.333Z,3.93
2019-06-01T03:51:19.720Z,4.10
2019-06-01T03:53:46.117Z,4.23
2019-06-01T03:56:12.510Z,3.93
2019-06-01T03:58:58.820Z,4.40
2019-06-01T04:01:25.203Z,3.80
2019-06-01T04:03:51.611Z,3.83
2019-06-01T04:06:18.089Z,4.03
2019-06-01T04:08:44.593Z,3.47
2019-06-01T04:11:11.744Z,3.93
2019-06-01T04:13:38.290Z,3.90
2019-06-01T04:16:05.757Z,3.97
2019-06-01T04:18:32.375Z,4.00
2019-06-01T04:20:58.752Z,3.80
2019-06-01T04:23:25.164Z,4.30
2019-06-01T04:25:51.643Z,3.70
2019-06-01T04:28:18.045Z,4.00
2019-06-01T04:30:44.454Z,3.80
2019-06-01T04:33:11.057Z,3.80
2019-06-01T04:35:37.463Z,5.10
2019-06-01T04:38:05.006Z,3.83
2019-06-01T04:40:31.579Z,3.93
2019-06-01T04:42:57.964Z,4.27
2019-06-01T04:45:24.409Z,4.30
2019-06-01T04:47:50.786Z,4.63
2019-06-01T04:50:18.083Z,3.80
2019-06-01T04:52:44.484Z,4.10
2019-06-01T04:55:11.191Z,3.47
2019-06-01T04:57:37.670Z,4.60
2019-06-01T05:00:12.667Z,4.43
2019-06-01T05:02:34.290Z,4.53
2019-06-01T05:05:00.674Z,4.43
2019-06-01T05:07:27.091Z,4.73
2019-06-01T05:09:53.491Z,4.37
2019-06-01T05:12:19.870Z,4.30
2019-06-01T05:14:46.252Z,4.37
2019-06-01T05:17:13.369Z,4.13
2019-06-01T05:19:40.979Z,4.20
2019-06-01T05:22:08.404Z,4.37
2019-06-01T05:24:34.863Z,4.30
2019-06-01T05:27:01.261Z,4.63
2019-06-01T05:29:27.643Z,4.40
2019-06-01T05:31:54.143Z,3.80
2019-06-01T05:34:20.532Z,4.13
2019-06-01T05:36:46.923Z,3.67
2019-06-01T05:39:14.474Z,3.80
2019-06-01T05:41:40.939Z,3.93
2019-06-01T05:44:08.746Z,3.77
2019-06-01T05:46:35.328Z,3.93
2019-06-01T05:49:01.732Z,3.80
2019-06-01T05:51:48.011Z,4.17
2019-06-01T05:54:14.600Z,4.20
2019-06-01T05:56:41.096Z,4.50
2019-06-01T05:59:07.503Z,3.90
2019-06-01T06:01:33.892Z,3.60
2019-06-01T06:04:00.298Z,3.97
2019-06-01T06:06:26.683Z,4.00
2019-06-01T06:08:53.083Z,4.40
2019-06-01T06:11:19.486Z,3.80
2019-06-01T06:13:45.868Z,3.80
2019-06-01T06:16:13.707Z,4.70
2019-06-01T06:18:40.267Z,4.00
2019-06-01T06:21:06.712Z,3.87
2019-06-01T06:23:33.221Z,4.00
2019-06-01T06:25:59.916Z,4.40
2019-06-01T06:28:26.803Z,4.00
2019-06-01T06:31:21.260Z,3.90
2019-06-01T06:33:56.634Z,4.00
2019-06-01T06:36:19.874Z,4.67
2019-06-01T06:38:46.304Z,4.17
2019-06-01T06:41:13.920Z,4.20
2019-06-01T06:43:40.525Z,4.17
2019-06-01T06:46:06.951Z,3.93
2019-06-01T06:48:33.382Z,4.20
2019-06-01T06:50:59.776Z,3.80
2019-06-01T06:53:34.482Z,4.00
2019-06-01T06:55:54.547Z,3.50
2019-06-01T06:58:22.235Z,3.87
2019-06-01T07:00:49.094Z,4.17
2019-06-01T07:03:15.474Z,4.53
2019-06-01T07:05:41.885Z,4.47
2019-06-01T07:08:08.311Z,4.20
2019-06-01T07:10:34.769Z,4.47
2019-06-01T07:13:01.310Z,5.20
2019-06-01T07:15:27.702Z,5.57
2019-06-01T07:17:54.167Z,5.77
2019-06-01T07:20:21.523Z,5.53
2019-06-01T07:22:47.995Z,5.13
2019-06-01T07:25:14.399Z,4.50
2019-06-01T07:27:40.791Z,4.67
2019-06-01T07:30:07.339Z,4.60
2019-06-01T07:32:33.754Z,4.90
2019-06-01T07:35:01.132Z,4.73
2019-06-01T07:37:28.577Z,4.78
2019-06-01T07:39:55.082Z,4.53
2019-06-01T07:42:23.477Z,4.60
2019-06-01T07:44:49.811Z,4.13
2019-06-01T07:47:16.204Z,3.13
2019-06-01T07:49:42.603Z,3.30
2019-06-01T07:52:13.292Z,3.10
2019-06-01T07:54:37.343Z,3.37
2019-06-01T07:57:03.831Z,3.80
2019-06-01T07:59:30.576Z,3.60
2019-06-01T08:01:57.533Z,3.10
2019-06-01T08:04:25.790Z,2.63
2019-06-01T08:06:52.348Z,3.40
2019-06-01T08:09:18.786Z,3.30
2019-06-01T08:11:45.238Z,2.90
2019-06-01T08:14:11.668Z,3.20
2019-06-01T08:16:38.055Z,2.83
2019-06-01T08:19:04.464Z,2.20
2019-06-01T08:21:32.272Z,2.63
2019-06-01T08:23:58.851Z,2.30
2019-06-01T08:26:26.372Z,2.10
2019-06-01T08:28:52.973Z,2.00
2019-06-01T08:31:19.364Z,2.50
2019-06-01T08:33:45.767Z,3.20
2019-06-01T08:36:12.151Z,2.67
2019-06-01T08:38:38.540Z,2.53
2019-06-01T08:41:04.948Z,1.67
2019-06-01T08:43:31.838Z,1.63
2019-06-01T08:45:58.426Z,1.47
2019-06-01T08:48:25.659Z,1.30
2019-06-01T08:50:52.227Z,1.53
2019-06-01T08:53:18.657Z,1.73
2019-06-01T08:55:45.055Z,1.90
2019-06-01T08:58:11.435Z,1.23
2019-06-01T09:00:37.862Z,1.60
2019-06-01T09:03:04.231Z,1.00
2019-06-01T09:05:31.567Z,1.30
2019-06-01T09:07:58.041Z,1.13
2019-06-01T09:10:25.246Z,1.00
2019-06-01T09:12:51.844Z,1.30
2019-06-01T09:15:18.352Z,1.20
2019-06-01T09:17:44.735Z,1.17
2019-06-01T09:20:11.353Z,1.07
2019-06-01T09:22:37.731Z,1.00
2019-06-01T09:25:04.441Z,1.07
2019-06-01T09:27:31.906Z,1.00
2019-06-01T09:29:58.563Z,1.50
2019-06-01T09:32:26.007Z,1.03
2019-06-01T09:34:52.788Z,1.10
2019-06-01T09:37:19.175Z,1.15
2019-06-01T09:39:45.580Z,0.90
2019-06-01T09:42:11.987Z,1.07
2019-06-01T09:44:38.407Z,1.00
2019-06-01T09:47:04.814Z,1.43
2019-06-01T09:49:32.618Z,0.90
2019-06-01T09:51:59.561Z,1.40
2019-06-01T09:54:25.947Z,1.00
2019-06-01T09:56:52.391Z,1.43
2019-06-01T09:59:18.785Z,1.30
2019-06-01T10:01:45.182Z,1.90
2019-06-01T10:04:11.764Z,1.00
2019-06-01T10:06:38.730Z,1.00
2019-06-01T10:09:06.396Z,0.90
2019-06-01T10:11:34.230Z,1.00
2019-06-01T10:14:00.858Z,1.17
2019-06-01T10:16:27.299Z,0.80
2019-06-01T10:18:53.707Z,1.00
2019-06-01T10:21:20.160Z,0.80
2019-06-01T10:23:49.749Z,1.07
2019-06-01T10:26:14.918Z,1.00
2019-06-01T10:28:41.931Z,0.83
2019-06-01T10:31:08.560Z,1.10
2019-06-01T10:33:35.149Z,0.97
2019-06-01T10:36:18.663Z,1.17
2019-06-01T10:38:31.091Z,0.97
2019-06-01T10:40:57.647Z,0.90
2019-06-01T10:43:24.027Z,0.83
2019-06-01T10:45:50.483Z,1.20
2019-06-01T10:48:16.846Z,0.90
2019-06-01T10:50:43.247Z,1.03
2019-06-01T10:53:09.651Z,0.90
2019-06-01T10:55:36.208Z,1.10
2019-06-01T10:58:02.642Z,1.13
2019-06-01T11:00:41.129Z,0.80
2019-06-01T11:02:57.354Z,0.97
2019-06-01T11:05:23.725Z,1.05
2019-06-01T11:07:50.131Z,1.20
2019-06-01T11:10:16.542Z,1.10
2019-06-01T11:12:43.301Z,1.00
2019-06-01T11:15:11.640Z,1.00
2019-06-01T11:17:39.280Z,0.90
2019-06-01T11:20:06.230Z,1.10
2019-06-01T11:22:33.467Z,0.83
2019-06-01T11:24:59.932Z,1.00
2019-06-01T11:27:26.394Z,0.80
2019-06-01T11:29:52.872Z,0.97
2019-06-01T11:32:19.280Z,1.00
2019-06-01T11:34:45.673Z,0.83
2019-06-01T11:37:15.287Z,0.90
2019-06-01T11:39:40.565Z,0.80
2019-06-01T11:42:07.099Z,1.03
2019-06-01T11:44:34.673Z,0.80
2019-06-01T11:47:01.282Z,0.97
2019-06-01T11:49:27.691Z,1.00
2019-06-01T11:51:54.135Z,0.80
2019-06-01T11:54:20.524Z,0.60
2019-06-01T11:56:46.931Z,0.80
2019-06-01T11:59:13.321Z,0.83
2019-06-01T12:01:39.904Z,0.70
2019-06-01T12:04:06.564Z,0.70
2019-06-01T12:06:32.951Z,0.80
2019-06-01T12:08:59.371Z,0.77
2019-06-01T12:11:25.786Z,1.00
2019-06-01T12:13:52.167Z,0.60
2019-06-01T12:16:18.625Z,1.10
2019-06-01T12:18:45.007Z,0.70
2019-06-01T12:21:11.424Z,0.90
2019-06-01T12:23:38.888Z,0.93
2019-06-01T12:26:05.515Z,0.80
2019-06-01T12:28:32.064Z,1.10
2019-06-01T12:30:58.469Z,0.90
2019-06-01T12:33:24.872Z,1.25
2019-06-01T12:35:51.258Z,0.72
2019-06-01T12:38:17.673Z,0.57
2019-06-01T12:40:45.251Z,0.80
2019-06-01T12:43:11.791Z,0.80
2019-06-01T12:45:38.182Z,0.70
2019-06-01T12:48:05.797Z,0.95
2019-06-01T12:50:32.375Z,0.80
2019-06-01T12:52:58.775Z,0.80
2019-06-01T12:55:27.156Z,0.90
2019-06-01T12:57:53.612Z,1.00
2019-06-01T13:00:20.006Z,1.37
2019-06-01T13:02:56.281Z,1.20
2019-06-01T13:05:15.302Z,1.02
2019-06-01T13:07:54.344Z,2.20
2019-06-01T13:10:10.134Z,1.40
2019-06-01T13:12:36.536Z,1.00
2019-06-01T13:15:04.838Z,1.80
2019-06-01T13:17:31.246Z,0.90
2019-06-01T13:19:57.651Z,0.50
2019-06-01T13:22:24.078Z,0.70
2019-06-01T13:24:51.916Z,0.70
2019-06-01T13:27:18.577Z,2.58
2019-06-01T13:29:45.810Z,0.70
2019-06-01T13:32:12.276Z,0.93
2019-06-01T13:34:38.671Z,0.70
2019-06-01T13:37:05.075Z,0.88
2019-06-01T13:39:31.460Z,0.70
2019-06-01T13:41:57.879Z,0.95
2019-06-01T13:44:24.275Z,0.70
2019-06-01T13:46:51.500Z,0.77
2019-06-01T13:49:18.108Z,0.78
2019-06-01T13:51:45.905Z,0.78
2019-06-01T13:54:12.510Z,0.65
2019-06-01T13:56:38.953Z,0.80
2019-06-01T13:59:05.415Z,0.60
2019-06-01T14:01:31.854Z,0.93
2019-06-01T14:03:58.307Z,0.70
2019-06-01T14:06:24.686Z,0.70
2019-06-01T14:08:51.155Z,0.60
2019-06-01T14:11:17.562Z,0.80
2019-06-01T14:13:45.253Z,0.70
2019-06-01T14:16:11.830Z,0.72
2019-06-01T14:18:38.246Z,0.70
2019-06-01T14:21:04.753Z,0.90
2019-06-01T14:23:31.297Z,0.85
2019-06-01T14:25:57.712Z,0.55
2019-06-01T14:28:24.144Z,1.02
2019-06-01T14:30:50.616Z,1.15
2019-06-01T14:33:17.124Z,0.68
2019-06-01T14:35:43.523Z,1.10
2019-06-01T14:38:10.193Z,0.73
2019-06-01T14:40:36.628Z,1.10
2019-06-01T14:43:03.136Z,0.70
2019-06-01T14:45:29.536Z,0.85
2019-06-01T14:47:55.983Z,0.93
2019-06-01T14:50:22.375Z,0.60
2019-06-01T14:52:49.580Z,0.80
2019-06-01T14:55:16.243Z,0.75
2019-06-01T14:57:42.623Z,0.70
2019-06-01T15:00:30.871Z,0.75
2019-06-01T15:02:59.489Z,0.70
2019-06-01T15:05:25.863Z,0.80
2019-06-01T15:07:52.446Z,0.80
2019-06-01T15:10:19.030Z,0.95
2019-06-01T15:12:45.427Z,0.90
2019-06-01T15:15:11.948Z,1.05
2019-06-01T15:17:38.523Z,1.12
2019-06-01T15:20:09.085Z,1.82
2019-06-01T15:22:35.590Z,1.20
2019-06-01T15:25:03.899Z,1.35
2019-06-01T15:27:30.324Z,1.67
2019-06-01T15:29:57.010Z,1.90
2019-06-01T15:32:26.504Z,1.98
2019-06-01T15:34:52.386Z,1.60
2019-06-01T15:37:20.814Z,1.37
2019-06-01T15:39:47.336Z,1.57
2019-06-01T15:42:13.707Z,1.82
2019-06-01T15:44:40.202Z,2.10
2019-06-01T15:47:06.605Z,2.47
2019-06-01T15:49:33.594Z,2.60
2019-06-01T15:51:59.986Z,2.55
2019-06-01T15:54:26.388Z,2.80
2019-06-01T15:56:52.790Z,3.10
2019-06-01T15:59:19.243Z,3.00
2019-06-01T16:01:45.707Z,3.25
2019-06-01T16:04:12.253Z,3.17
2019-06-01T16:06:38.796Z,3.33
2019-06-01T16:09:05.398Z,3.08
2019-06-01T16:11:31.861Z,3.10
2019-06-01T16:13:58.228Z,3.40
2019-06-01T16:16:24.689Z,3.52
2019-06-01T16:18:51.146Z,3.12
2019-06-01T16:21:21.967Z,3.27
2019-06-01T16:23:50.427Z,3.25
2019-06-01T16:26:18.123Z,3.27
2019-06-01T16:28:44.323Z,3.33
2019-06-01T16:31:10.408Z,3.10
2019-06-01T16:33:37.403Z,2.98
2019-06-01T16:36:03.867Z,2.50
2019-06-01T16:38:31.636Z,1.85
2019-06-01T16:40:57.668Z,1.75
2019-06-01T16:43:23.701Z,1.60
2019-06-01T16:45:52.325Z,1.07
2019-06-01T16:48:18.338Z,1.00
2019-06-01T16:50:44.432Z,0.88
2019-06-01T16:53:10.439Z,0.80
2019-06-01T16:55:36.494Z,0.50
2019-06-01T16:58:03.667Z,0.50
2019-06-01T17:00:30.538Z,0.53
2019-06-01T17:02:57.037Z,0.55
2019-06-01T17:05:23.452Z,0.53
2019-06-01T17:07:49.954Z,0.40
2019-06-01T17:10:25.729Z,0.45
2019-06-01T17:12:45.258Z,0.50
2019-06-01T17:15:12.478Z,0.50
2019-06-01T17:17:38.883Z,0.50
2019-06-01T17:20:05.582Z,0.50
2019-06-01T17:22:32.179Z,0.55
2019-06-01T17:24:59.662Z,0.40
2019-06-01T17:27:26.287Z,0.47
2019-06-01T17:29:52.758Z,0.50
2019-06-01T17:32:24.325Z,0.37
2019-06-01T17:34:47.480Z,0.45
2019-06-01T17:37:13.900Z,0.40
2019-06-01T17:39:40.311Z,0.50
2019-06-01T17:42:06.702Z,2.52
2019-06-01T17:44:33.123Z,3.60
2019-06-01T17:46:59.922Z,2.98
2019-06-01T17:49:26.409Z,2.22
2019-06-01T17:51:52.816Z,1.90
2019-06-01T17:54:19.215Z,1.50
2019-06-01T17:56:45.657Z,1.20
2019-06-01T17:59:12.056Z,1.00
2019-06-01T18:01:42.132Z,0.97
2019-06-01T18:04:07.861Z,0.60
2019-06-01T18:06:34.367Z,0.70
2019-06-01T18:09:01.877Z,0.42
2019-06-01T18:11:28.512Z,0.50
2019-06-01T18:13:54.901Z,0.42
2019-06-01T18:16:21.416Z,0.40
2019-06-01T18:18:47.807Z,0.40
2019-06-01T18:21:14.215Z,0.40
2019-06-01T18:23:40.612Z,0.33
2019-06-01T18:26:07.119Z,0.40
2019-06-01T18:28:33.513Z,0.30
2019-06-01T18:30:59.935Z,0.33
2019-06-01T18:33:26.441Z,0.40
2019-06-01T18:35:52.941Z,0.50
2019-06-01T18:38:19.371Z,0.47
2019-06-01T18:40:45.921Z,0.43
2019-06-01T18:43:14.297Z,0.30
2019-06-01T18:45:41.119Z,0.50
2019-06-01T18:48:08.158Z,0.47
2019-06-01T18:50:34.730Z,0.53
2019-06-01T18:53:01.298Z,0.47
2019-06-01T18:55:27.900Z,0.40
2019-06-01T18:57:56.384Z,0.40
2019-06-01T19:00:22.872Z,0.30
2019-06-01T19:02:49.286Z,0.30
2019-06-01T19:05:15.791Z,0.33
2019-06-01T19:07:42.204Z,0.30
2019-06-01T19:10:09.442Z,0.30
2019-06-01T19:12:36.122Z,0.40
2019-06-01T19:15:10.908Z,0.40
2019-06-01T19:17:32.854Z,0.40
2019-06-01T19:19:59.272Z,0.40
2019-06-01T19:22:25.684Z,0.50
2019-06-01T19:24:52.054Z,0.47
2019-06-01T19:27:18.084Z,0.90
2019-06-01T19:29:44.100Z,0.90
2019-06-01T19:32:10.861Z,0.90
2019-06-01T19:34:37.066Z,0.60
2019-06-01T19:37:03.076Z,0.70
2019-06-01T19:39:30.312Z,0.80
2019-06-01T19:41:57.188Z,0.70
2019-06-01T19:44:23.256Z,0.60
2019-06-01T19:46:49.255Z,0.60
2019-06-01T19:49:16.807Z,0.68
2019-06-01T19:51:43.055Z,0.57
2019-06-01T19:54:09.084Z,0.50
2019-06-01T19:56:35.113Z,0.60
2019-06-01T19:59:01.192Z,0.40
2019-06-01T20:01:27.251Z,0.40
2019-06-01T20:03:53.267Z,0.40
2019-06-01T20:06:19.319Z,0.47
2019-06-01T20:08:45.337Z,0.40
2019-06-01T20:11:11.423Z,0.40
2019-06-01T20:13:37.433Z,0.70
2019-06-01T20:16:03.533Z,0.50
2019-06-01T20:18:29.687Z,0.47
2019-06-01T20:20:55.746Z,0.30
2019-06-01T20:23:21.890Z,0.40
2019-06-01T20:25:47.959Z,0.37
2019-06-01T20:28:14.059Z,0.30
2019-06-01T20:30:40.219Z,0.60
2019-06-01T20:33:06.252Z,0.70
2019-06-01T20:35:32.310Z,1.23
2019-06-01T20:37:58.348Z,1.37
2019-06-01T20:40:24.415Z,1.40
2019-06-01T20:42:50.426Z,1.20
2019-06-01T20:45:16.962Z,1.10
2019-06-01T20:47:43.429Z,0.70
2019-06-01T20:50:10.363Z,0.80
2019-06-01T20:52:38.076Z,0.80
2019-06-01T20:55:05.351Z,0.80
2019-06-01T20:57:31.740Z,0.70
2019-06-01T20:59:58.131Z,0.50
2019-06-01T21:02:24.530Z,0.50
2019-06-01T21:04:50.957Z,0.40
2019-06-01T21:07:17.807Z,0.70
2019-06-01T21:09:44.266Z,0.47
2019-06-01T21:12:10.682Z,0.43
2019-06-01T21:14:37.177Z,0.40
2019-06-01T21:17:03.688Z,0.30
2019-06-01T21:19:38.815Z,0.50
2019-06-01T21:22:29.465Z,0.30
2019-06-01T21:24:53.238Z,0.43
2019-06-01T21:27:20.757Z,0.40
2019-06-01T21:29:47.264Z,0.40
2019-06-01T21:32:15.127Z,0.40
2019-06-01T21:34:41.768Z,0.40
2019-06-01T21:37:08.336Z,0.33
2019-06-01T21:39:34.825Z,0.40
2019-06-01T21:42:01.272Z,0.40
2019-06-01T21:44:27.813Z,0.50
2019-06-01T21:46:54.288Z,0.60
2019-06-01T21:49:22.071Z,0.30
2019-06-01T21:51:48.818Z,0.30
2019-06-01T21:54:16.034Z,0.50
2019-06-01T21:56:44.531Z,0.40
2019-06-01T21:59:10.918Z,0.47
2019-06-01T22:01:37.415Z,0.50
2019-06-01T22:04:03.821Z,0.50
2019-06-01T22:06:30.223Z,0.60
2019-06-01T22:08:56.598Z,0.80
2019-06-01T22:11:23.481Z,0.50
2019-06-01T22:13:50.264Z,0.60
2019-06-01T22:16:17.517Z,0.60
2019-06-01T22:18:44.177Z,0.60
2019-06-01T22:21:10.579Z,0.73
2019-06-01T22:23:36.983Z,1.00
2019-06-01T22:26:03.503Z,0.90
2019-06-01T22:28:29.888Z,1.20
2019-06-01T22:30:56.422Z,1.30
2019-06-01T22:33:23.152Z,1.30
2019-06-01T22:35:49.907Z,1.20
2019-06-01T22:38:16.295Z,1.00
2019-06-01T22:40:42.343Z,0.90
2019-06-01T22:43:08.355Z,1.07
2019-06-01T22:45:36.462Z,1.07
2019-06-01T22:48:05.079Z,0.73
2019-06-01T22:50:31.481Z,0.70
2019-06-01T22:52:57.984Z,0.77
2019-06-01T22:55:24.466Z,0.80
2019-06-01T22:57:50.873Z,0.80
2019-06-01T23:00:17.692Z,0.70
2019-06-01T23:02:44.198Z,0.80
2019-06-01T23:05:10.668Z,0.70
2019-06-01T23:07:37.098Z,0.90
2019-06-01T23:10:03.987Z,0.80
2019-06-01T23:12:31.618Z,0.60
2019-06-01T23:14:58.098Z,0.70
2019-06-01T23:17:27.613Z,0.70
2019-06-01T23:19:54.540Z,0.60
2019-06-01T23:22:21.755Z,0.50
2019-06-01T23:24:48.340Z,0.50
2019-06-01T23:27:14.744Z,0.40
2019-06-01T23:29:41.123Z,0.40
2019-06-01T23:32:07.532Z,0.40
2019-06-01T23:34:33.923Z,0.57
2019-06-01T23:37:02.200Z,0.40
2019-06-01T23:39:28.852Z,0.57
2019-06-01T23:41:55.595Z,0.40
2019-06-01T23:44:22.720Z,0.57
2019-06-01T23:46:49.286Z,0.50
2019-06-01T23:49:35.560Z,0.40
2019-06-01T23:52:01.965Z,0.40
2019-06-01T23:54:29.441Z,0.40
2019-06-01T23:56:56.156Z,0.40
2019-06-01T23:59:22.531Z,0.50
